createdAt,value
2018-04-07T00:01:08.718Z,66.10
2018-04-07T00:03:38.561Z,66.30
2018-04-07T00:06:08.361Z,66.70
2018-04-07T00:08:38.203Z,66.10
2018-04-07T00:11:07.246Z,66.10
2018-04-07T00:13:36.304Z,66.10
2018-04-07T00:16:05.370Z,66.20
2018-04-07T00:18:34.411Z,66.50
2018-04-07T00:21:03.494Z,66.50
2018-04-07T00:23:32.552Z,66.90
2018-04-07T00:26:01.581Z,66.60
2018-04-07T00:28:30.639Z,66.70
2018-04-07T00:30:59.678Z,66.40
2018-04-07T00:33:28.730Z,67.10
2018-04-07T00:35:57.799Z,66.80
2018-04-07T00:38:27.599Z,67.00
2018-04-07T00:40:56.658Z,67.00
2018-04-07T00:43:25.690Z,66.80
2018-04-07T00:45:54.850Z,67.40
2018-04-07T00:48:23.885Z,67.10
2018-04-07T00:50:53.708Z,67.70
2018-04-07T00:53:23.511Z,67.20
2018-04-07T00:55:53.341Z,67.20
2018-04-07T00:58:22.373Z,67.20
2018-04-07T01:00:51.438Z,66.70
2018-04-07T01:03:20.488Z,67.20
2018-04-07T01:05:49.550Z,67.50
2018-04-07T01:08:19.466Z,67.50
2018-04-07T01:10:48.502Z,67.70
2018-04-07T01:13:17.575Z,67.70
2018-04-07T01:15:46.615Z,67.90
2018-04-07T01:18:16.434Z,68.70
2018-04-07T01:20:45.502Z,68.70
2018-04-07T01:23:14.566Z,69.30
2018-04-07T01:25:43.631Z,69.80
2018-04-07T01:28:12.674Z,70.10
2018-04-07T01:30:41.738Z,70.30
2018-04-07T01:33:10.821Z,70.20
2018-04-07T01:35:39.852Z,70.20
2018-04-07T01:38:08.964Z,70.50
2018-04-07T01:40:38.023Z,70.60
2018-04-07T01:43:07.047Z,70.70
2018-04-07T01:45:36.108Z,70.80
2018-04-07T01:48:05.198Z,70.90
2018-04-07T01:50:34.254Z,70.90
2018-04-07T01:53:03.316Z,71.00
2018-04-07T01:55:32.364Z,71.30
2018-04-07T01:58:01.455Z,71.20
2018-04-07T02:00:30.516Z,71.20
2018-04-07T02:03:00.345Z,71.00
2018-04-07T02:05:30.171Z,71.40
2018-04-07T02:07:59.216Z,71.40
2018-04-07T02:10:28.309Z,71.30
2018-04-07T02:12:57.345Z,71.30
2018-04-07T02:15:26.432Z,71.10
2018-04-07T02:17:56.254Z,71.40
2018-04-07T02:20:25.301Z,71.30
2018-04-07T02:22:54.374Z,71.60
2018-04-07T02:25:23.395Z,71.60
2018-04-07T02:27:52.463Z,71.90
2018-04-07T02:30:21.505Z,71.90
2018-04-07T02:32:51.381Z,71.90
2018-04-07T02:35:20.373Z,71.90
2018-04-07T02:37:49.443Z,71.90
2018-04-07T02:40:18.498Z,72.50
2018-04-07T02:42:48.307Z,72.80
2018-04-07T02:45:18.127Z,72.80
2018-04-07T02:47:47.933Z,72.70
2018-04-07T02:50:17.808Z,72.50
2018-04-07T02:52:46.799Z,72.50
2018-04-07T02:55:15.850Z,73.40
2018-04-07T02:57:44.930Z,74.00
2018-04-07T03:00:13.945Z,74.70
2018-04-07T03:02:43.020Z,75.30
2018-04-07T03:05:12.850Z,75.90
2018-04-07T03:07:41.907Z,75.40
2018-04-07T03:10:10.949Z,75.40
2018-04-07T03:12:40.012Z,75.60
2018-04-07T03:15:09.086Z,75.70
2018-04-07T03:17:38.122Z,75.80
2018-04-07T03:20:07.174Z,75.40
2018-04-07T03:22:36.222Z,75.60
2018-04-07T03:25:05.275Z,75.40
2018-04-07T03:27:35.075Z,75.40
2018-04-07T03:30:04.152Z,75.40
2018-04-07T03:32:33.173Z,75.50
2018-04-07T03:35:02.211Z,75.80
2018-04-07T03:37:31.270Z,75.80
2018-04-07T03:40:01.106Z,75.90
2018-04-07T03:42:30.164Z,75.90
2018-04-07T03:44:59.228Z,75.70
2018-04-07T03:47:28.290Z,75.70
2018-04-07T03:49:57.345Z,75.80
2018-04-07T03:52:26.407Z,75.30
2018-04-07T03:54:55.459Z,76.00
2018-04-07T03:57:25.257Z,75.90
2018-04-07T03:59:55.092Z,76.30
2018-04-07T04:02:24.126Z,76.10
2018-04-07T04:04:53.209Z,76.60
2018-04-07T04:07:22.254Z,76.60
2018-04-07T04:09:52.079Z,76.50
2018-04-07T04:12:21.158Z,76.40
2018-04-07T04:14:50.217Z,76.30
2018-04-07T04:17:19.257Z,76.20
2018-04-07T04:19:49.090Z,76.30
2018-04-07T04:22:18.168Z,76.30
2018-04-07T04:24:47.982Z,76.30
2018-04-07T04:27:17.050Z,76.20
2018-04-07T04:29:46.131Z,76.10
2018-04-07T04:32:15.155Z,76.20
2018-04-07T04:34:44.989Z,76.30
2018-04-07T04:37:14.047Z,76.30
2018-04-07T04:39:43.080Z,76.60
2018-04-07T04:42:12.172Z,77.20
2018-04-07T04:44:41.216Z,76.10
2018-04-07T04:47:10.283Z,75.90
2018-04-07T04:49:39.348Z,75.50
2018-04-07T04:52:08.404Z,75.20
2018-04-07T04:54:37.442Z,74.80
2018-04-07T04:57:06.516Z,74.80
2018-04-07T04:59:36.361Z,75.50
2018-04-07T05:02:05.392Z,75.40
2018-04-07T05:04:34.460Z,75.70
2018-04-07T05:07:03.514Z,75.90
2018-04-07T05:09:33.358Z,75.80
2018-04-07T05:12:02.420Z,75.80
2018-04-07T05:14:32.256Z,75.80
2018-04-07T05:17:01.289Z,75.80
2018-04-07T05:19:30.347Z,75.30
2018-04-07T05:21:59.454Z,75.10
2018-04-07T05:24:28.537Z,74.90
2018-04-07T05:26:57.553Z,74.70
2018-04-07T05:29:26.625Z,74.40
2018-04-07T05:31:55.658Z,74.10
2018-04-07T05:34:24.730Z,73.70
2018-04-07T05:36:53.781Z,73.40
2018-04-07T05:39:23.576Z,72.50
2018-04-07T05:41:52.655Z,72.50
2018-04-07T05:44:23.206Z,71.10
2018-04-07T05:46:53.037Z,69.80
2018-04-07T05:49:22.098Z,69.10
2018-04-07T05:51:51.120Z,68.40
2018-04-07T05:54:20.946Z,68.00
2018-04-07T05:56:50.041Z,68.00
2018-04-07T05:59:19.100Z,67.10
2018-04-07T06:01:48.155Z,66.00
2018-04-07T06:04:17.193Z,65.20
2018-04-07T06:06:46.254Z,65.20
2018-04-07T06:09:15.318Z,64.90
2018-04-07T06:11:44.359Z,64.30
2018-04-07T06:14:13.413Z,64.30
2018-04-07T06:16:42.453Z,63.50
2018-04-07T06:19:11.521Z,63.30
2018-04-07T06:21:40.546Z,63.00
2018-04-07T06:24:09.625Z,63.30
2018-04-07T06:26:38.646Z,63.80
2018-04-07T06:29:07.795Z,64.00
2018-04-07T06:31:36.825Z,63.30
2018-04-07T06:34:05.860Z,62.40
2018-04-07T06:36:34.914Z,62.60
2018-04-07T06:39:03.945Z,62.10
2018-04-07T06:41:33.006Z,61.90
2018-04-07T06:44:02.811Z,61.90
2018-04-07T06:46:31.896Z,61.90
2018-04-07T06:49:00.917Z,60.10
2018-04-07T06:51:30.760Z,60.80
2018-04-07T06:53:59.791Z,60.10
2018-04-07T06:56:28.842Z,59.60
2018-04-07T06:58:57.907Z,58.00
2018-04-07T07:01:27.737Z,57.20
2018-04-07T07:03:56.765Z,57.20
2018-04-07T07:06:25.821Z,55.90
2018-04-07T07:08:54.949Z,57.20
2018-04-07T07:11:23.928Z,59.10
2018-04-07T07:13:52.993Z,60.00
2018-04-07T07:16:22.785Z,59.10
2018-04-07T07:18:51.945Z,59.10
2018-04-07T07:21:20.999Z,59.30
2018-04-07T07:23:50.800Z,58.80
2018-04-07T07:26:20.624Z,59.10
2018-04-07T07:28:50.653Z,58.60
2018-04-07T07:31:19.702Z,58.60
2018-04-07T07:33:48.769Z,57.80
2018-04-07T07:36:17.801Z,57.90
2018-04-07T07:38:46.845Z,56.70
2018-04-07T07:41:15.901Z,57.20
2018-04-07T07:43:45.723Z,54.80
2018-04-07T07:46:14.751Z,54.80
2018-04-07T07:48:43.948Z,54.60
2018-04-07T07:51:13.141Z,53.70
2018-04-07T07:53:42.188Z,53.70
2018-04-07T07:56:11.283Z,51.70
2018-04-07T07:58:40.326Z,48.70
2018-04-07T08:01:09.362Z,49.60
2018-04-07T08:03:38.422Z,50.10
2018-04-07T08:06:07.467Z,48.60
2018-04-07T08:08:36.500Z,48.40
2018-04-07T08:11:05.585Z,47.80
2018-04-07T08:13:34.621Z,47.50
2018-04-07T08:16:03.661Z,47.30
2018-04-07T08:18:32.762Z,47.60
2018-04-07T08:21:01.824Z,47.70
2018-04-07T08:23:30.876Z,47.60
2018-04-07T08:25:59.998Z,46.00
2018-04-07T08:28:29.022Z,45.70
2018-04-07T08:30:58.819Z,45.80
2018-04-07T08:33:27.886Z,45.90
2018-04-07T08:35:56.913Z,45.70
2018-04-07T08:38:26.710Z,43.80
2018-04-07T08:40:55.781Z,43.80
2018-04-07T08:43:24.804Z,42.10
2018-04-07T08:45:53.841Z,42.10
2018-04-07T08:48:22.924Z,41.50
2018-04-07T08:50:51.971Z,42.50
2018-04-07T08:53:21.189Z,41.20
2018-04-07T08:55:50.273Z,41.20
2018-04-07T08:58:19.300Z,41.50
2018-04-07T09:00:48.621Z,41.60
2018-04-07T09:03:17.686Z,39.90
2018-04-07T09:05:47.479Z,39.20
2018-04-07T09:08:16.514Z,39.20
2018-04-07T09:10:45.578Z,39.70
2018-04-07T09:13:15.982Z,38.90
2018-04-07T09:15:45.004Z,38.90
2018-04-07T09:18:14.844Z,38.90
2018-04-07T09:20:43.896Z,38.80
2018-04-07T09:23:12.936Z,40.00
2018-04-07T09:25:42.019Z,40.10
2018-04-07T09:28:11.065Z,38.70
2018-04-07T09:30:40.094Z,38.80
2018-04-07T09:33:09.949Z,39.60
2018-04-07T09:35:38.988Z,39.70
2018-04-07T09:38:08.062Z,39.00
2018-04-07T09:40:37.106Z,39.60
2018-04-07T09:43:06.174Z,39.20
2018-04-07T09:45:36.006Z,40.00
2018-04-07T09:48:05.043Z,40.00
2018-04-07T09:50:34.128Z,39.90
2018-04-07T09:53:03.169Z,39.60
2018-04-07T09:55:32.994Z,39.90
2018-04-07T09:58:02.064Z,40.00
2018-04-07T10:00:31.145Z,39.80
2018-04-07T10:03:02.046Z,40.00
2018-04-07T10:05:31.135Z,40.20
2018-04-07T10:08:00.195Z,40.60
2018-04-07T10:10:30.006Z,41.70
2018-04-07T10:12:59.844Z,42.00
2018-04-07T10:15:28.930Z,42.00
2018-04-07T10:17:58.799Z,43.40
2018-04-07T10:20:27.871Z,43.40
2018-04-07T10:22:56.919Z,42.80
2018-04-07T10:25:26.749Z,43.30
2018-04-07T10:27:55.813Z,43.20
2018-04-07T10:30:24.869Z,44.10
2018-04-07T10:32:53.929Z,45.30
2018-04-07T10:35:22.984Z,45.50
2018-04-07T10:37:52.049Z,46.10
2018-04-07T10:40:21.098Z,45.90
2018-04-07T10:42:50.972Z,46.10
2018-04-07T10:45:21.067Z,45.90
2018-04-07T10:47:50.153Z,45.90
2018-04-07T10:50:19.194Z,46.00
2018-04-07T10:52:48.273Z,46.10
2018-04-07T10:55:17.303Z,46.50
2018-04-07T10:57:46.361Z,46.20
2018-04-07T11:00:15.393Z,46.20
2018-04-07T11:02:45.230Z,45.80
2018-04-07T11:05:14.309Z,45.80
2018-04-07T11:07:44.106Z,46.00
2018-04-07T11:10:13.955Z,45.90
2018-04-07T11:12:42.983Z,45.80
2018-04-07T11:15:12.053Z,44.50
2018-04-07T11:17:41.086Z,44.90
2018-04-07T11:20:10.158Z,44.80
2018-04-07T11:22:39.244Z,44.60
2018-04-07T11:25:09.002Z,43.90
2018-04-07T11:27:38.077Z,43.90
2018-04-07T11:30:07.144Z,44.40
2018-04-07T11:32:36.189Z,44.30
2018-04-07T11:35:06.018Z,44.40
2018-04-07T11:37:35.093Z,44.40
2018-04-07T11:40:04.132Z,44.20
2018-04-07T11:42:33.172Z,45.00
2018-04-07T11:45:02.293Z,45.00
2018-04-07T11:47:31.309Z,44.80
2018-04-07T11:50:00.376Z,44.80
2018-04-07T11:52:30.201Z,45.20
2018-04-07T11:54:59.229Z,45.10
2018-04-07T11:57:28.294Z,44.50
2018-04-07T11:59:57.358Z,45.30
2018-04-07T12:02:27.973Z,44.80
2018-04-07T12:04:57.031Z,44.70
2018-04-07T12:07:26.086Z,44.70
2018-04-07T12:09:55.922Z,46.00
2018-04-07T12:12:25.009Z,45.90
2018-04-07T12:14:54.063Z,46.20
2018-04-07T12:17:23.106Z,44.90
2018-04-07T12:19:52.206Z,43.80
2018-04-07T12:22:21.242Z,41.60
2018-04-07T12:24:50.279Z,41.70
2018-04-07T12:27:19.347Z,41.50
2018-04-07T12:29:48.387Z,42.90
2018-04-07T12:32:17.467Z,43.00
2018-04-07T12:34:46.498Z,43.90
2018-04-07T12:37:15.568Z,43.10
2018-04-07T12:39:44.604Z,43.60
2018-04-07T12:42:13.690Z,43.50
2018-04-07T12:44:42.750Z,43.80
2018-04-07T18:26:53.528Z,68.20
2018-04-07T18:29:23.941Z,66.90
2018-04-07T18:31:53.278Z,66.80
2018-04-07T18:34:22.654Z,66.90
2018-04-07T18:36:53.230Z,66.90
2018-04-07T18:39:23.706Z,66.90
2018-04-07T18:41:53.717Z,66.80
2018-04-07T18:44:23.063Z,66.80
2018-04-07T18:46:52.413Z,67.00
2018-04-07T18:49:22.274Z,67.10
2018-04-07T18:51:51.651Z,67.40
2018-04-07T18:54:21.718Z,67.80
2018-04-07T18:56:51.529Z,67.80
2018-04-07T18:59:20.856Z,68.00
2018-04-07T19:01:50.214Z,68.10
2018-04-07T19:04:19.565Z,68.60
2018-04-07T19:06:50.059Z,68.70
2018-04-07T19:09:19.407Z,69.00
2018-04-07T19:11:49.526Z,69.40
2018-04-07T19:14:19.635Z,69.20
2018-04-07T19:16:48.959Z,69.20
2018-04-07T19:19:18.305Z,70.40
2018-04-07T19:21:47.643Z,69.90
2018-04-07T19:24:17.018Z,70.00
2018-04-07T19:26:46.363Z,70.00
2018-04-07T19:29:16.437Z,70.70
2018-04-07T19:31:45.911Z,70.70
2018-04-07T19:34:16.031Z,71.40
2018-04-07T19:36:45.351Z,71.40
2018-04-07T19:39:14.689Z,71.70
2018-04-07T19:41:44.787Z,71.90
2018-04-07T19:44:14.122Z,72.00
2018-04-07T19:46:44.199Z,72.60
2018-04-07T19:49:13.533Z,72.40
2018-04-07T19:51:43.624Z,73.00
2018-04-07T19:54:12.945Z,73.00
2018-04-07T19:56:42.292Z,72.90
2018-04-07T19:59:11.629Z,72.80
2018-04-07T20:01:40.961Z,72.80
2018-04-07T20:04:11.065Z,73.60
2018-04-07T20:06:41.195Z,73.20
2018-04-07T20:09:11.297Z,73.50
2018-04-07T20:11:40.610Z,73.50
2018-04-07T20:14:10.736Z,74.10
2018-04-07T20:16:40.808Z,74.30
2018-04-07T20:19:10.162Z,74.30
2018-04-07T20:21:40.256Z,74.50
2018-04-07T20:24:09.549Z,74.50
2018-04-07T20:26:38.852Z,75.40
2018-04-07T20:29:08.164Z,75.00
2018-04-07T20:31:38.266Z,75.40
2018-04-07T20:34:07.627Z,75.30
2018-04-07T20:36:36.930Z,75.40
2018-04-07T20:39:06.985Z,75.60
2018-04-07T20:41:36.304Z,76.20
2018-04-07T20:44:06.395Z,77.20
2018-04-07T20:46:35.577Z,76.40
2018-04-07T20:49:04.744Z,76.60
2018-04-07T20:51:33.994Z,76.80
2018-04-07T20:54:03.226Z,77.00
2018-04-07T20:56:33.029Z,77.90
2018-04-07T20:59:02.104Z,77.70
2018-04-07T21:01:32.722Z,78.20
2018-04-07T21:04:01.807Z,78.20
2018-04-07T21:06:31.750Z,78.40
2018-04-07T21:09:01.558Z,78.70
2018-04-07T21:11:30.667Z,78.70
2018-04-07T21:13:59.745Z,78.70
2018-04-07T21:16:29.623Z,78.70
2018-04-07T21:18:58.768Z,79.30
2018-04-07T21:21:28.570Z,79.30
2018-04-07T21:23:58.460Z,79.00
2018-04-07T21:26:27.494Z,79.00
2018-04-07T21:28:56.621Z,78.90
2018-04-07T21:31:25.685Z,79.20
2018-04-07T21:33:54.790Z,79.80
2018-04-07T21:36:24.574Z,79.60
2018-04-07T21:38:54.438Z,79.90
2018-04-07T21:41:23.507Z,79.80
2018-04-07T21:43:52.570Z,80.20
2018-04-07T21:46:22.408Z,80.40
2018-04-07T21:48:51.470Z,80.40
2018-04-07T21:51:20.519Z,79.90
2018-04-07T21:53:49.562Z,79.90
2018-04-07T21:56:19.407Z,80.50
2018-04-07T21:58:48.452Z,80.40
2018-04-07T22:01:17.521Z,80.30
2018-04-07T22:03:46.588Z,80.30
2018-04-07T22:06:15.669Z,80.40
2018-04-07T22:08:45.478Z,79.90
2018-04-07T22:11:15.554Z,79.50
2018-04-07T22:13:44.492Z,79.50
2018-04-07T22:16:14.498Z,80.20
2018-04-07T22:18:43.681Z,80.20
2018-04-07T22:21:12.732Z,79.70
2018-04-07T22:23:41.771Z,79.30
2018-04-07T22:26:10.867Z,79.20
2018-04-07T22:28:40.675Z,79.10
2018-04-07T22:31:09.713Z,79.10
2018-04-07T22:33:38.808Z,78.80
2018-04-07T22:36:07.895Z,79.00
2018-04-07T22:38:37.691Z,79.10
2018-04-07T22:41:07.607Z,78.60
2018-04-07T22:43:37.423Z,78.70
2018-04-07T22:46:07.235Z,78.50
2018-04-07T22:48:36.330Z,78.50
2018-04-07T22:51:05.387Z,78.70
2018-04-07T22:53:34.444Z,78.80
2018-04-07T22:56:03.547Z,79.00
2018-04-07T22:58:32.604Z,78.70
2018-04-07T23:01:02.432Z,79.00
2018-04-07T23:03:31.478Z,79.00
2018-04-07T23:06:00.512Z,79.20
2018-04-07T23:08:29.585Z,79.30
2018-04-07T23:10:58.622Z,79.50
2018-04-07T23:13:27.663Z,79.30
2018-04-07T23:15:56.762Z,79.00
2018-04-07T23:18:25.877Z,79.20
2018-04-07T23:20:55.695Z,78.80
2018-04-07T23:23:24.742Z,78.80
2018-04-07T23:25:53.793Z,79.00
2018-04-07T23:28:22.898Z,78.90
2018-04-07T23:30:51.933Z,78.60
2018-04-07T23:33:20.990Z,79.40
2018-04-07T23:35:50.095Z,79.10
2018-04-07T23:38:19.180Z,78.90
2018-04-07T23:40:48.969Z,79.30
2018-04-07T23:43:18.013Z,79.30
2018-04-07T23:45:47.065Z,79.60
2018-04-07T23:48:16.193Z,79.80
2018-04-07T23:50:45.233Z,79.80
2018-04-07T23:53:15.038Z,80.20
2018-04-07T23:55:44.922Z,79.90
2018-04-07T23:58:13.961Z,79.90
